sensor_id;sensor_type;location;lat;lon;timestamp;temperature;humidity
63802;DHT22;49949;43.060;25.624;2024-03-08T00:02:00;6.30;99.90
63802;DHT22;49949;43.060;25.624;2024-03-08T00:04:26;6.20;99.90
63802;DHT22;49949;43.060;25.624;2024-03-08T00:06:51;6.10;99.90
63802;DHT22;49949;43.060;25.624;2024-03-08T00:09:17;5.90;99.90
63802;DHT22;49949;43.060;25.624;2024-03-08T00:11:43;6.00;99.90
63802;DHT22;49949;43.060;25.624;2024-03-08T00:14:09;6.00;99.90
63802;DHT22;49949;43.060;25.624;2024-03-08T00:16:34;6.10;99.90
63802;DHT22;49949;43.060;25.624;2024-03-08T00:19:03;6.00;99.90
63802;DHT22;49949;43.060;25.624;2024-03-08T00:21:29;5.90;99.90
63802;DHT22;49949;43.060;25.624;2024-03-08T00:23:55;5.80;99.90
63802;DHT22;49949;43.060;25.624;2024-03-08T00:26:21;5.80;99.90
63802;DHT22;49949;43.060;25.624;2024-03-08T00:28:49;5.90;99.90
63802;DHT22;49949;43.060;25.624;2024-03-08T00:31:15;5.90;99.90
63802;DHT22;49949;43.060;25.624;2024-03-08T00:33:43;5.90;99.90
63802;DHT22;49949;43.060;25.624;2024-03-08T00:36:09;5.80;99.90
63802;DHT22;49949;43.060;25.624;2024-03-08T00:38:34;5.70;99.90
63802;DHT22;49949;43.060;25.624;2024-03-08T00:41:00;5.70;99.90
63802;DHT22;49949;43.060;25.624;2024-03-08T00:43:26;5.80;99.90
63802;DHT22;49949;43.060;25.624;2024-03-08T00:45:52;5.80;99.90
63802;DHT22;49949;43.060;25.624;2024-03-08T00:48:17;5.80;99.90
63802;DHT22;49949;43.060;25.624;2024-03-08T00:50:43;5.80;99.90
63802;DHT22;49949;43.060;25.624;2024-03-08T00:53:11;5.70;99.90
63802;DHT22;49949;43.060;25.624;2024-03-08T00:55:37;5.60;99.90
63802;DHT22;49949;43.060;25.624;2024-03-08T00:58:04;5.60;99.90
63802;DHT22;49949;43.060;25.624;2024-03-08T01:00:29;5.60;99.90
63802;DHT22;49949;43.060;25.624;2024-03-08T01:02:55;5.60;99.90
63802;DHT22;49949;43.060;25.624;2024-03-08T01:05:21;5.70;99.90
63802;DHT22;49949;43.060;25.624;2024-03-08T01:07:49;5.70;99.90
63802;DHT22;49949;43.060;25.624;2024-03-08T01:10:15;5.60;99.90
63802;DHT22;49949;43.060;25.624;2024-03-08T01:12:40;5.50;99.90
63802;DHT22;49949;43.060;25.624;2024-03-08T01:15:09;5.60;99.90
63802;DHT22;49949;43.060;25.624;2024-03-08T01:17:36;5.60;99.90
63802;DHT22;49949;43.060;25.624;2024-03-08T01:20:02;5.60;99.90
63802;DHT22;49949;43.060;25.624;2024-03-08T01:22:28;5.60;99.90
63802;DHT22;49949;43.060;25.624;2024-03-08T01:24:55;5.60;99.90
63802;DHT22;49949;43.060;25.624;2024-03-08T01:27:21;5.70;99.90
63802;DHT22;49949;43.060;25.624;2024-03-08T01:29:47;5.70;99.90
63802;DHT22;49949;43.060;25.624;2024-03-08T01:32:13;5.70;99.90
63802;DHT22;49949;43.060;25.624;2024-03-08T01:34:40;5.70;99.90
63802;DHT22;49949;43.060;25.624;2024-03-08T01:37:06;5.70;99.90
63802;DHT22;49949;43.060;25.624;2024-03-08T01:39:32;5.70;99.90
63802;DHT22;49949;43.060;25.624;2024-03-08T01:41:58;5.70;99.90
63802;DHT22;49949;43.060;25.624;2024-03-08T01:44:23;5.70;99.90
63802;DHT22;49949;43.060;25.624;2024-03-08T01:46:50;5.70;99.90
63802;DHT22;49949;43.060;25.624;2024-03-08T01:49:18;5.70;99.90
63802;DHT22;49949;43.060;25.624;2024-03-08T01:51:46;5.70;99.90
63802;DHT22;49949;43.060;25.624;2024-03-08T01:54:12;5.60;99.90
63802;DHT22;49949;43.060;25.624;2024-03-08T01:56:40;5.60;99.90
63802;DHT22;49949;43.060;25.624;2024-03-08T01:59:06;5.60;99.90
63802;DHT22;49949;43.060;25.624;2024-03-08T02:01:33;5.50;99.90
63802;DHT22;49949;43.060;25.624;2024-03-08T02:03:59;5.50;99.90
63802;DHT22;49949;43.060;25.624;2024-03-08T02:06:25;5.40;99.90
63802;DHT22;49949;43.060;25.624;2024-03-08T02:08:51;5.40;99.90
63802;DHT22;49949;43.060;25.624;2024-03-08T02:11:17;5.30;99.90
63802;DHT22;49949;43.060;25.624;2024-03-08T02:13:44;5.30;99.90
63802;DHT22;49949;43.060;25.624;2024-03-08T02:16:10;5.30;99.90
63802;DHT22;49949;43.060;25.624;2024-03-08T02:18:36;5.30;99.90
63802;DHT22;49949;43.060;25.624;2024-03-08T02:21:03;5.20;99.90
63802;DHT22;49949;43.060;25.624;2024-03-08T02:23:38;5.30;99.90
63802;DHT22;49949;43.060;25.624;2024-03-08T02:26:05;5.20;99.90
63802;DHT22;49949;43.060;25.624;2024-03-08T02:28:33;5.20;99.90
63802;DHT22;49949;43.060;25.624;2024-03-08T02:30:59;5.30;99.90
63802;DHT22;49949;43.060;25.624;2024-03-08T02:33:27;5.30;99.90
63802;DHT22;49949;43.060;25.624;2024-03-08T02:35:54;5.20;99.90
63802;DHT22;49949;43.060;25.624;2024-03-08T02:38:21;5.30;99.90
63802;DHT22;49949;43.060;25.624;2024-03-08T02:40:49;5.20;99.90
63802;DHT22;49949;43.060;25.624;2024-03-08T02:43:16;5.20;99.90
63802;DHT22;49949;43.060;25.624;2024-03-08T02:45:43;5.20;99.90
63802;DHT22;49949;43.060;25.624;2024-03-08T02:48:09;5.10;99.90
63802;DHT22;49949;43.060;25.624;2024-03-08T02:50:35;5.10;99.90
63802;DHT22;49949;43.060;25.624;2024-03-08T02:53:01;5.10;99.90
63802;DHT22;49949;43.060;25.624;2024-03-08T02:55:27;5.10;99.90
63802;DHT22;49949;43.060;25.624;2024-03-08T02:57:53;5.10;99.90
63802;DHT22;49949;43.060;25.624;2024-03-08T03:00:22;5.10;99.90
63802;DHT22;49949;43.060;25.624;2024-03-08T03:02:50;5.10;99.90
63802;DHT22;49949;43.060;25.624;2024-03-08T03:05:22;5.00;99.90
63802;DHT22;49949;43.060;25.624;2024-03-08T03:07:48;5.00;99.90
63802;DHT22;49949;43.060;25.624;2024-03-08T03:10:14;5.00;99.90
63802;DHT22;49949;43.060;25.624;2024-03-08T03:12:42;5.00;99.90
63802;DHT22;49949;43.060;25.624;2024-03-08T03:15:08;5.00;99.90
63802;DHT22;49949;43.060;25.624;2024-03-08T03:17:34;4.90;99.90
63802;DHT22;49949;43.060;25.624;2024-03-08T03:20:00;4.90;99.90
63802;DHT22;49949;43.060;25.624;2024-03-08T03:22:34;4.90;99.90
63802;DHT22;49949;43.060;25.624;2024-03-08T03:25:00;5.00;99.90
63802;DHT22;49949;43.060;25.624;2024-03-08T03:27:26;5.00;99.90
63802;DHT22;49949;43.060;25.624;2024-03-08T03:29:51;5.00;99.90
63802;DHT22;49949;43.060;25.624;2024-03-08T03:32:17;5.00;99.90
63802;DHT22;49949;43.060;25.624;2024-03-08T03:34:44;5.00;99.90
63802;DHT22;49949;43.060;25.624;2024-03-08T03:37:10;5.00;99.90
63802;DHT22;49949;43.060;25.624;2024-03-08T03:39:40;5.00;99.90
63802;DHT22;49949;43.060;25.624;2024-03-08T03:42:17;5.00;99.90
63802;DHT22;49949;43.060;25.624;2024-03-08T03:44:47;4.90;99.90
63802;DHT22;49949;43.060;25.624;2024-03-08T03:47:13;4.90;99.90
63802;DHT22;49949;43.060;25.624;2024-03-08T03:49:40;4.90;99.90
63802;DHT22;49949;43.060;25.624;2024-03-08T03:52:06;4.90;99.90
63802;DHT22;49949;43.060;25.624;2024-03-08T03:54:32;5.00;99.90
63802;DHT22;49949;43.060;25.624;2024-03-08T03:56:58;4.90;99.90
63802;DHT22;49949;43.060;25.624;2024-03-08T03:59:24;4.90;99.90
63802;DHT22;49949;43.060;25.624;2024-03-08T04:01:50;5.00;99.90
63802;DHT22;49949;43.060;25.624;2024-03-08T04:04:16;5.00;99.90
63802;DHT22;49949;43.060;25.624;2024-03-08T04:06:41;4.90;99.90
63802;DHT22;49949;43.060;25.624;2024-03-08T04:09:07;4.80;99.90
63802;DHT22;49949;43.060;25.624;2024-03-08T04:11:33;4.90;99.90
63802;DHT22;49949;43.060;25.624;2024-03-08T04:13:59;4.90;99.90
63802;DHT22;49949;43.060;25.624;2024-03-08T04:16:24;4.90;99.90
63802;DHT22;49949;43.060;25.624;2024-03-08T04:18:51;4.90;99.90
63802;DHT22;49949;43.060;25.624;2024-03-08T04:21:17;4.70;99.90
63802;DHT22;49949;43.060;25.624;2024-03-08T04:23:44;4.70;99.90
63802;DHT22;49949;43.060;25.624;2024-03-08T04:26:11;4.60;99.90
63802;DHT22;49949;43.060;25.624;2024-03-08T04:28:36;4.60;99.90
63802;DHT22;49949;43.060;25.624;2024-03-08T04:31:03;4.70;99.90
63802;DHT22;49949;43.060;25.624;2024-03-08T04:33:29;4.60;99.90
63802;DHT22;49949;43.060;25.624;2024-03-08T04:35:55;4.60;99.90
63802;DHT22;49949;43.060;25.624;2024-03-08T04:38:21;4.60;99.90
63802;DHT22;49949;43.060;25.624;2024-03-08T04:40:47;4.70;99.90
63802;DHT22;49949;43.060;25.624;2024-03-08T04:43:13;4.80;99.90
63802;DHT22;49949;43.060;25.624;2024-03-08T04:45:39;4.80;99.90
63802;DHT22;49949;43.060;25.624;2024-03-08T04:48:07;4.70;99.90
63802;DHT22;49949;43.060;25.624;2024-03-08T04:50:33;4.70;99.90
63802;DHT22;49949;43.060;25.624;2024-03-08T04:52:59;4.70;99.90
63802;DHT22;49949;43.060;25.624;2024-03-08T04:55:25;4.80;99.90
63802;DHT22;49949;43.060;25.624;2024-03-08T04:57:50;4.80;99.90
63802;DHT22;49949;43.060;25.624;2024-03-08T05:00:16;4.80;99.90
63802;DHT22;49949;43.060;25.624;2024-03-08T05:02:42;4.80;99.90
63802;DHT22;49949;43.060;25.624;2024-03-08T05:05:08;4.80;99.90
63802;DHT22;49949;43.060;25.624;2024-03-08T05:07:37;4.80;99.90
63802;DHT22;49949;43.060;25.624;2024-03-08T05:10:03;4.80;99.90
63802;DHT22;49949;43.060;25.624;2024-03-08T05:12:29;4.80;99.90
63802;DHT22;49949;43.060;25.624;2024-03-08T05:14:55;4.80;99.90
63802;DHT22;49949;43.060;25.624;2024-03-08T05:17:21;4.80;99.90
63802;DHT22;49949;43.060;25.624;2024-03-08T05:19:49;4.70;99.90
63802;DHT22;49949;43.060;25.624;2024-03-08T05:22:15;4.70;99.90
63802;DHT22;49949;43.060;25.624;2024-03-08T05:24:41;4.70;99.90
63802;DHT22;49949;43.060;25.624;2024-03-08T05:27:06;4.70;99.90
63802;DHT22;49949;43.060;25.624;2024-03-08T05:29:32;4.70;99.90
63802;DHT22;49949;43.060;25.624;2024-03-08T05:31:58;4.70;99.90
63802;DHT22;49949;43.060;25.624;2024-03-08T05:34:25;4.70;99.90
63802;DHT22;49949;43.060;25.624;2024-03-08T05:36:51;4.70;99.90
63802;DHT22;49949;43.060;25.624;2024-03-08T05:39:19;4.60;99.90
63802;DHT22;49949;43.060;25.624;2024-03-08T05:41:45;4.70;99.90
63802;DHT22;49949;43.060;25.624;2024-03-08T05:44:12;4.70;99.90
63802;DHT22;49949;43.060;25.624;2024-03-08T05:46:38;4.70;99.90
63802;DHT22;49949;43.060;25.624;2024-03-08T05:49:04;4.70;99.90
63802;DHT22;49949;43.060;25.624;2024-03-08T05:51:34;4.60;99.90
63802;DHT22;49949;43.060;25.624;2024-03-08T05:54:04;4.70;99.90
63802;DHT22;49949;43.060;25.624;2024-03-08T05:56:36;4.70;99.90
63802;DHT22;49949;43.060;25.624;2024-03-08T05:59:02;4.70;99.90
63802;DHT22;49949;43.060;25.624;2024-03-08T06:01:28;4.70;99.90
63802;DHT22;49949;43.060;25.624;2024-03-08T06:03:55;4.70;99.90
63802;DHT22;49949;43.060;25.624;2024-03-08T06:06:25;4.70;99.90
63802;DHT22;49949;43.060;25.624;2024-03-08T06:08:51;4.80;99.90
63802;DHT22;49949;43.060;25.624;2024-03-08T06:11:18;4.70;99.90
63802;DHT22;49949;43.060;25.624;2024-03-08T06:13:47;4.60;99.90
63802;DHT22;49949;43.060;25.624;2024-03-08T06:16:13;4.70;99.90
63802;DHT22;49949;43.060;25.624;2024-03-08T06:18:39;4.70;99.90
63802;DHT22;49949;43.060;25.624;2024-03-08T06:21:05;4.70;99.90
63802;DHT22;49949;43.060;25.624;2024-03-08T06:23:34;4.60;99.90
63802;DHT22;49949;43.060;25.624;2024-03-08T06:26:04;4.60;99.90
63802;DHT22;49949;43.060;25.624;2024-03-08T06:28:30;4.60;99.90
63802;DHT22;49949;43.060;25.624;2024-03-08T06:31:01;4.60;99.90
63802;DHT22;49949;43.060;25.624;2024-03-08T06:33:27;4.60;99.90
63802;DHT22;49949;43.060;25.624;2024-03-08T06:35:54;4.60;99.90
63802;DHT22;49949;43.060;25.624;2024-03-08T06:38:23;4.50;99.90
63802;DHT22;49949;43.060;25.624;2024-03-08T06:40:49;4.50;99.90
63802;DHT22;49949;43.060;25.624;2024-03-08T06:43:14;4.60;99.90
63802;DHT22;49949;43.060;25.624;2024-03-08T06:45:44;4.60;99.90
63802;DHT22;49949;43.060;25.624;2024-03-08T06:48:19;4.60;99.90
63802;DHT22;49949;43.060;25.624;2024-03-08T06:50:46;4.70;99.90
63802;DHT22;49949;43.060;25.624;2024-03-08T06:53:13;4.60;99.90
63802;DHT22;49949;43.060;25.624;2024-03-08T06:55:42;4.60;99.90
63802;DHT22;49949;43.060;25.624;2024-03-08T06:58:07;4.70;99.90
63802;DHT22;49949;43.060;25.624;2024-03-08T07:00:33;4.80;99.90
63802;DHT22;49949;43.060;25.624;2024-03-08T07:02:59;4.70;99.90
63802;DHT22;49949;43.060;25.624;2024-03-08T07:05:29;4.70;99.90
63802;DHT22;49949;43.060;25.624;2024-03-08T07:07:55;4.70;99.90
63802;DHT22;49949;43.060;25.624;2024-03-08T07:10:21;4.80;99.90
63802;DHT22;49949;43.060;25.624;2024-03-08T07:12:50;4.70;99.90
63802;DHT22;49949;43.060;25.624;2024-03-08T07:15:16;4.70;99.90
63802;DHT22;49949;43.060;25.624;2024-03-08T07:17:41;4.70;99.90
63802;DHT22;49949;43.060;25.624;2024-03-08T07:20:10;4.70;99.90
63802;DHT22;49949;43.060;25.624;2024-03-08T07:22:39;4.70;99.90
63802;DHT22;49949;43.060;25.624;2024-03-08T07:25:08;4.70;99.90
63802;DHT22;49949;43.060;25.624;2024-03-08T07:27:53;4.70;99.90
63802;DHT22;49949;43.060;25.624;2024-03-08T07:30:21;4.60;99.90
63802;DHT22;49949;43.060;25.624;2024-03-08T07:33:06;4.60;99.90
63802;DHT22;49949;43.060;25.624;2024-03-08T07:35:33;4.60;99.90
63802;DHT22;49949;43.060;25.624;2024-03-08T07:38:04;4.70;99.90
63802;DHT22;49949;43.060;25.624;2024-03-08T07:40:31;4.70;99.90
63802;DHT22;49949;43.060;25.624;2024-03-08T07:42:56;4.70;99.90
63802;DHT22;49949;43.060;25.624;2024-03-08T07:45:23;4.70;99.90
63802;DHT22;49949;43.060;25.624;2024-03-08T07:47:49;4.70;99.90
63802;DHT22;49949;43.060;25.624;2024-03-08T07:50:16;4.70;99.90
63802;DHT22;49949;43.060;25.624;2024-03-08T07:52:42;4.80;99.90
63802;DHT22;49949;43.060;25.624;2024-03-08T07:55:08;4.70;99.90
63802;DHT22;49949;43.060;25.624;2024-03-08T07:57:35;4.80;99.90
63802;DHT22;49949;43.060;25.624;2024-03-08T08:00:04;4.80;99.90
63802;DHT22;49949;43.060;25.624;2024-03-08T08:02:33;4.70;99.90
63802;DHT22;49949;43.060;25.624;2024-03-08T08:04:59;4.80;99.90
63802;DHT22;49949;43.060;25.624;2024-03-08T08:07:25;4.80;99.90
63802;DHT22;49949;43.060;25.624;2024-03-08T08:09:52;4.80;99.90
63802;DHT22;49949;43.060;25.624;2024-03-08T08:12:18;4.80;99.90
63802;DHT22;49949;43.060;25.624;2024-03-08T08:14:44;4.80;99.90
63802;DHT22;49949;43.060;25.624;2024-03-08T08:17:09;4.80;99.90
63802;DHT22;49949;43.060;25.624;2024-03-08T08:19:35;4.80;99.90
63802;DHT22;49949;43.060;25.624;2024-03-08T08:22:04;4.80;99.90
63802;DHT22;49949;43.060;25.624;2024-03-08T08:24:29;4.80;99.90
63802;DHT22;49949;43.060;25.624;2024-03-08T08:26:55;4.80;99.90
63802;DHT22;49949;43.060;25.624;2024-03-08T08:29:21;4.90;99.90
63802;DHT22;49949;43.060;25.624;2024-03-08T08:31:48;4.90;99.90
63802;DHT22;49949;43.060;25.624;2024-03-08T08:34:16;5.00;99.90
63802;DHT22;49949;43.060;25.624;2024-03-08T08:36:44;5.10;99.90
63802;DHT22;49949;43.060;25.624;2024-03-08T08:39:10;5.00;99.90
63802;DHT22;49949;43.060;25.624;2024-03-08T08:41:39;5.00;99.90
63802;DHT22;49949;43.060;25.624;2024-03-08T08:44:07;5.00;99.90
63802;DHT22;49949;43.060;25.624;2024-03-08T08:46:36;5.00;99.90
63802;DHT22;49949;43.060;25.624;2024-03-08T08:49:03;5.10;99.90
63802;DHT22;49949;43.060;25.624;2024-03-08T08:51:29;5.10;99.90
63802;DHT22;49949;43.060;25.624;2024-03-08T08:53:55;5.20;99.90
63802;DHT22;49949;43.060;25.624;2024-03-08T08:56:21;5.20;99.90
63802;DHT22;49949;43.060;25.624;2024-03-08T08:58:47;5.20;99.90
63802;DHT22;49949;43.060;25.624;2024-03-08T09:01:14;5.20;99.90
63802;DHT22;49949;43.060;25.624;2024-03-08T09:03:40;5.20;99.90
63802;DHT22;49949;43.060;25.624;2024-03-08T09:06:07;5.10;99.90
63802;DHT22;49949;43.060;25.624;2024-03-08T09:08:39;5.10;99.90
63802;DHT22;49949;43.060;25.624;2024-03-08T09:11:05;5.10;99.90
63802;DHT22;49949;43.060;25.624;2024-03-08T09:13:31;5.20;99.90
63802;DHT22;49949;43.060;25.624;2024-03-08T09:15:57;5.20;99.90
63802;DHT22;49949;43.060;25.624;2024-03-08T09:18:22;5.20;99.90
63802;DHT22;49949;43.060;25.624;2024-03-08T09:20:49;5.20;99.90
63802;DHT22;49949;43.060;25.624;2024-03-08T09:23:19;5.30;99.90
63802;DHT22;49949;43.060;25.624;2024-03-08T09:25:45;5.30;99.90
63802;DHT22;49949;43.060;25.624;2024-03-08T09:28:12;5.30;99.90
63802;DHT22;49949;43.060;25.624;2024-03-08T09:30:38;5.40;99.90
63802;DHT22;49949;43.060;25.624;2024-03-08T09:33:05;5.40;99.90
63802;DHT22;49949;43.060;25.624;2024-03-08T09:35:31;5.40;99.90
63802;DHT22;49949;43.060;25.624;2024-03-08T09:37:57;5.40;99.90
63802;DHT22;49949;43.060;25.624;2024-03-08T09:40:22;5.50;99.90
63802;DHT22;49949;43.060;25.624;2024-03-08T09:42:51;5.50;99.90
63802;DHT22;49949;43.060;25.624;2024-03-08T09:45:20;5.40;99.90
63802;DHT22;49949;43.060;25.624;2024-03-08T09:47:47;5.40;99.90
63802;DHT22;49949;43.060;25.624;2024-03-08T09:50:14;5.40;99.90
63802;DHT22;49949;43.060;25.624;2024-03-08T09:52:41;5.40;99.90
63802;DHT22;49949;43.060;25.624;2024-03-08T09:55:10;5.40;99.90
63802;DHT22;49949;43.060;25.624;2024-03-08T09:57:40;5.40;99.90
63802;DHT22;49949;43.060;25.624;2024-03-08T10:00:06;5.50;99.90
63802;DHT22;49949;43.060;25.624;2024-03-08T10:02:47;5.50;99.90
63802;DHT22;49949;43.060;25.624;2024-03-08T10:05:14;5.40;99.90
63802;DHT22;49949;43.060;25.624;2024-03-08T10:07:40;5.40;99.90
63802;DHT22;49949;43.060;25.624;2024-03-08T10:10:06;5.40;99.90
63802;DHT22;49949;43.060;25.624;2024-03-08T10:12:36;5.40;99.90
63802;DHT22;49949;43.060;25.624;2024-03-08T10:15:02;5.40;99.90
63802;DHT22;49949;43.060;25.624;2024-03-08T10:17:28;5.40;99.90
63802;DHT22;49949;43.060;25.624;2024-03-08T10:19:58;5.30;99.90
63802;DHT22;49949;43.060;25.624;2024-03-08T10:22:25;5.20;99.90
63802;DHT22;49949;43.060;25.624;2024-03-08T10:24:51;5.30;99.90
63802;DHT22;49949;43.060;25.624;2024-03-08T10:27:17;5.30;99.90
63802;DHT22;49949;43.060;25.624;2024-03-08T10:29:45;5.30;99.90
63802;DHT22;49949;43.060;25.624;2024-03-08T10:32:11;5.40;99.90
63802;DHT22;49949;43.060;25.624;2024-03-08T10:34:37;5.30;99.90
63802;DHT22;49949;43.060;25.624;2024-03-08T10:37:08;5.20;99.90
63802;DHT22;49949;43.060;25.624;2024-03-08T10:39:41;5.20;99.90
63802;DHT22;49949;43.060;25.624;2024-03-08T10:42:12;5.20;99.90
63802;DHT22;49949;43.060;25.624;2024-03-08T10:44:53;5.30;99.90
63802;DHT22;49949;43.060;25.624;2024-03-08T10:47:30;5.30;99.90
63802;DHT22;49949;43.060;25.624;2024-03-08T10:50:19;5.20;99.90
63802;DHT22;49949;43.060;25.624;2024-03-08T10:52:51;5.10;99.90
63802;DHT22;49949;43.060;25.624;2024-03-08T10:55:18;5.10;99.90
63802;DHT22;49949;43.060;25.624;2024-03-08T10:57:46;5.20;99.90
63802;DHT22;49949;43.060;25.624;2024-03-08T11:00:15;5.20;99.90
63802;DHT22;49949;43.060;25.624;2024-03-08T11:02:45;5.20;99.90
63802;DHT22;49949;43.060;25.624;2024-03-08T11:05:13;5.10;99.90
63802;DHT22;49949;43.060;25.624;2024-03-08T11:07:46;5.00;99.90
63802;DHT22;49949;43.060;25.624;2024-03-08T11:10:19;5.00;99.90
63802;DHT22;49949;43.060;25.624;2024-03-08T11:12:46;5.00;99.90
63802;DHT22;49949;43.060;25.624;2024-03-08T11:15:14;5.00;99.90
63802;DHT22;49949;43.060;25.624;2024-03-08T11:17:47;5.00;99.90
63802;DHT22;49949;43.060;25.624;2024-03-08T11:20:18;4.90;99.90
63802;DHT22;49949;43.060;25.624;2024-03-08T11:25:50;5.00;99.90
63802;DHT22;49949;43.060;25.624;2024-03-08T11:28:23;5.10;99.90
63802;DHT22;49949;43.060;25.624;2024-03-08T11:33:26;5.10;99.90
63802;DHT22;49949;43.060;25.624;2024-03-08T11:35:57;5.10;99.90
63802;DHT22;49949;43.060;25.624;2024-03-08T11:38:29;5.10;99.90
63802;DHT22;49949;43.060;25.624;2024-03-08T11:40:57;5.20;99.90
63802;DHT22;49949;43.060;25.624;2024-03-08T11:43:22;5.20;99.90
63802;DHT22;49949;43.060;25.624;2024-03-08T11:45:48;5.20;99.90
63802;DHT22;49949;43.060;25.624;2024-03-08T11:48:14;5.30;99.90
63802;DHT22;49949;43.060;25.624;2024-03-08T11:50:40;5.20;99.90
63802;DHT22;49949;43.060;25.624;2024-03-08T11:53:05;5.20;99.90
63802;DHT22;49949;43.060;25.624;2024-03-08T11:55:34;5.00;99.90
63802;DHT22;49949;43.060;25.624;2024-03-08T11:58:04;5.00;99.90
63802;DHT22;49949;43.060;25.624;2024-03-08T12:00:30;5.00;99.90
63802;DHT22;49949;43.060;25.624;2024-03-08T12:03:08;5.00;99.90
63802;DHT22;49949;43.060;25.624;2024-03-08T12:05:35;5.00;99.90
63802;DHT22;49949;43.060;25.624;2024-03-08T12:08:05;5.00;99.90
63802;DHT22;49949;43.060;25.624;2024-03-08T12:10:33;4.90;99.90
63802;DHT22;49949;43.060;25.624;2024-03-08T12:13:00;4.90;99.90
63802;DHT22;49949;43.060;25.624;2024-03-08T12:15:27;5.00;99.90
63802;DHT22;49949;43.060;25.624;2024-03-08T12:17:55;5.00;99.90
63802;DHT22;49949;43.060;25.624;2024-03-08T12:20:22;5.10;99.90
63802;DHT22;49949;43.060;25.624;2024-03-08T12:22:49;5.10;99.90
63802;DHT22;49949;43.060;25.624;2024-03-08T12:25:17;5.10;99.90
63802;DHT22;49949;43.060;25.624;2024-03-08T12:27:44;5.20;99.90
63802;DHT22;49949;43.060;25.624;2024-03-08T12:35:21;5.20;99.90
63802;DHT22;49949;43.060;25.624;2024-03-08T12:37:50;5.20;99.90
63802;DHT22;49949;43.060;25.624;2024-03-08T12:40:17;5.20;99.90
63802;DHT22;49949;43.060;25.624;2024-03-08T12:42:44;5.20;99.90
63802;DHT22;49949;43.060;25.624;2024-03-08T12:45:10;5.30;99.90
63802;DHT22;49949;43.060;25.624;2024-03-08T12:47:36;5.20;99.90
63802;DHT22;49949;43.060;25.624;2024-03-08T12:50:02;5.10;99.90
63802;DHT22;49949;43.060;25.624;2024-03-08T12:52:28;5.10;99.90
63802;DHT22;49949;43.060;25.624;2024-03-08T12:54:55;5.10;99.90
63802;DHT22;49949;43.060;25.624;2024-03-08T12:57:21;5.10;99.90
63802;DHT22;49949;43.060;25.624;2024-03-08T12:59:47;5.20;99.90
63802;DHT22;49949;43.060;25.624;2024-03-08T13:02:15;5.20;99.90
63802;DHT22;49949;43.060;25.624;2024-03-08T13:04:42;5.10;99.90
63802;DHT22;49949;43.060;25.624;2024-03-08T13:07:07;5.10;99.90
63802;DHT22;49949;43.060;25.624;2024-03-08T13:09:33;5.10;99.90
63802;DHT22;49949;43.060;25.624;2024-03-08T13:12:03;5.10;99.90
63802;DHT22;49949;43.060;25.624;2024-03-08T13:14:28;5.10;99.90
63802;DHT22;49949;43.060;25.624;2024-03-08T13:16:58;5.00;99.90
63802;DHT22;49949;43.060;25.624;2024-03-08T13:19:24;5.00;99.90
63802;DHT22;49949;43.060;25.624;2024-03-08T13:21:53;4.90;99.90
63802;DHT22;49949;43.060;25.624;2024-03-08T13:24:19;4.90;99.90
63802;DHT22;49949;43.060;25.624;2024-03-08T13:26:45;4.90;99.90
63802;DHT22;49949;43.060;25.624;2024-03-08T13:29:10;4.90;99.90
63802;DHT22;49949;43.060;25.624;2024-03-08T13:31:36;4.90;99.90
63802;DHT22;49949;43.060;25.624;2024-03-08T13:34:02;4.90;99.90
63802;DHT22;49949;43.060;25.624;2024-03-08T13:36:30;4.80;99.90
63802;DHT22;49949;43.060;25.624;2024-03-08T13:39:04;4.90;99.90
63802;DHT22;49949;43.060;25.624;2024-03-08T13:41:40;5.00;99.90
63802;DHT22;49949;43.060;25.624;2024-03-08T13:44:07;5.00;99.90
63802;DHT22;49949;43.060;25.624;2024-03-08T13:46:33;5.00;99.90
63802;DHT22;49949;43.060;25.624;2024-03-08T13:49:04;5.00;99.90
63802;DHT22;49949;43.060;25.624;2024-03-08T13:51:35;5.00;99.90
63802;DHT22;49949;43.060;25.624;2024-03-08T13:54:01;5.00;99.90
63802;DHT22;49949;43.060;25.624;2024-03-08T13:56:27;5.10;99.90
63802;DHT22;49949;43.060;25.624;2024-03-08T13:58:56;5.20;99.90
63802;DHT22;49949;43.060;25.624;2024-03-08T14:01:22;5.20;99.90
63802;DHT22;49949;43.060;25.624;2024-03-08T14:03:48;5.10;99.90
63802;DHT22;49949;43.060;25.624;2024-03-08T14:06:14;5.20;99.90
63802;DHT22;49949;43.060;25.624;2024-03-08T14:08:40;5.20;99.90
63802;DHT22;49949;43.060;25.624;2024-03-08T14:11:06;5.30;99.90
63802;DHT22;49949;43.060;25.624;2024-03-08T14:13:44;5.30;99.90
63802;DHT22;49949;43.060;25.624;2024-03-08T14:16:11;5.30;99.90
63802;DHT22;49949;43.060;25.624;2024-03-08T14:18:37;5.30;99.90
63802;DHT22;49949;43.060;25.624;2024-03-08T14:21:04;5.40;99.90
63802;DHT22;49949;43.060;25.624;2024-03-08T14:23:30;5.30;99.90
63802;DHT22;49949;43.060;25.624;2024-03-08T14:25:56;5.30;99.90
63802;DHT22;49949;43.060;25.624;2024-03-08T14:28:24;5.30;99.90
63802;DHT22;49949;43.060;25.624;2024-03-08T14:30:50;5.20;99.90
63802;DHT22;49949;43.060;25.624;2024-03-08T14:33:16;5.20;99.90
63802;DHT22;49949;43.060;25.624;2024-03-08T14:35:42;5.10;99.90
63802;DHT22;49949;43.060;25.624;2024-03-08T14:38:08;5.10;99.90
63802;DHT22;49949;43.060;25.624;2024-03-08T14:40:36;5.00;99.90
63802;DHT22;49949;43.060;25.624;2024-03-08T14:43:02;5.10;99.90
63802;DHT22;49949;43.060;25.624;2024-03-08T14:45:28;5.00;99.90
63802;DHT22;49949;43.060;25.624;2024-03-08T14:47:53;5.00;99.90
63802;DHT22;49949;43.060;25.624;2024-03-08T14:50:21;4.90;99.90
63802;DHT22;49949;43.060;25.624;2024-03-08T14:52:51;4.90;99.90
63802;DHT22;49949;43.060;25.624;2024-03-08T14:55:18;4.90;99.90
63802;DHT22;49949;43.060;25.624;2024-03-08T14:57:49;4.80;99.90
63802;DHT22;49949;43.060;25.624;2024-03-08T15:00:17;4.80;99.90
63802;DHT22;49949;43.060;25.624;2024-03-08T15:02:53;4.80;99.90
63802;DHT22;49949;43.060;25.624;2024-03-08T15:05:19;4.80;99.90
63802;DHT22;49949;43.060;25.624;2024-03-08T15:07:47;4.80;99.90
63802;DHT22;49949;43.060;25.624;2024-03-08T15:10:14;4.70;99.90
63802;DHT22;49949;43.060;25.624;2024-03-08T15:12:41;4.80;99.90
63802;DHT22;49949;43.060;25.624;2024-03-08T15:15:12;4.70;99.90
63802;DHT22;49949;43.060;25.624;2024-03-08T15:17:39;4.80;99.90
63802;DHT22;49949;43.060;25.624;2024-03-08T15:20:08;4.90;99.90
63802;DHT22;49949;43.060;25.624;2024-03-08T15:22:49;4.90;99.90
63802;DHT22;49949;43.060;25.624;2024-03-08T15:25:16;4.90;99.90
63802;DHT22;49949;43.060;25.624;2024-03-08T15:27:53;4.80;99.90
63802;DHT22;49949;43.060;25.624;2024-03-08T15:30:19;4.70;99.90
63802;DHT22;49949;43.060;25.624;2024-03-08T15:32:48;4.80;99.90
63802;DHT22;49949;43.060;25.624;2024-03-08T15:35:16;4.80;99.90
63802;DHT22;49949;43.060;25.624;2024-03-08T15:37:45;4.80;99.90
63802;DHT22;49949;43.060;25.624;2024-03-08T15:40:12;4.80;99.90
63802;DHT22;49949;43.060;25.624;2024-03-08T15:43:07;4.80;99.90